Time;durP1;ratioP1;P1;durP2;ratioP2;P2;SDS_P1;SDS_P2;PMS_P1;PMS_P2;Temp;Humidity;BMP_temperature;BMP_pressure;BME280_temperature;BME280_humidity;BME280_pressure;Samples;Min_cycle;Max_cycle;Signal;HPM_P1;HPM_P2
2021/08/06 00:01:17;;;;;;;1.10;1.07;;;22.70;61.00;;;;;;5033912;28;20567;-52
2021/08/06 00:03:42;;;;;;;2.50;1.43;;;22.70;61.10;;;;;;5034376;28;20200;-49
2021/08/06 00:06:08;;;;;;;3.43;1.10;;;22.70;61.70;;;;;;5033613;28;20483;-52
2021/08/06 00:08:35;;;;;;;3.80;1.27;;;22.60;61.60;;;;;;5032613;28;20201;-51
2021/08/06 00:11:01;;;;;;;2.50;1.00;;;22.60;61.10;;;;;;5033688;28;20275;-49
2021/08/06 00:13:27;;;;;;;3.03;1.10;;;22.60;61.30;;;;;;5034064;28;20826;-52
2021/08/06 00:15:53;;;;;;;1.50;1.40;;;22.50;60.90;;;;;;5033349;28;20478;-51
2021/08/06 00:18:18;;;;;;;1.00;0.97;;;22.50;61.00;;;;;;5036404;28;20233;-52
2021/08/06 00:20:44;;;;;;;1.27;1.00;;;22.60;61.10;;;;;;5045370;28;20420;-52
2021/08/06 00:23:11;;;;;;;1.30;1.20;;;22.50;61.00;;;;;;5033305;28;20200;-51
2021/08/06 00:25:36;;;;;;;2.03;1.10;;;22.60;61.10;;;;;;5033609;28;20519;-52
2021/08/06 00:28:03;;;;;;;2.13;1.10;;;22.60;61.20;;;;;;5033616;28;20459;-51
2021/08/06 00:30:29;;;;;;;3.67;0.87;;;22.60;61.10;;;;;;5033395;28;20189;-52
2021/08/06 00:32:55;;;;;;;1.40;1.20;;;22.60;60.90;;;;;;5032561;28;20535;-51
2021/08/06 00:35:21;;;;;;;1.30;0.80;;;22.60;60.90;;;;;;5031931;28;20197;-52
2021/08/06 00:37:47;;;;;;;1.53;0.90;;;22.60;61.30;;;;;;5033265;28;20486;-50
2021/08/06 00:40:13;;;;;;;1.20;1.20;;;22.50;60.40;;;;;;5033925;28;20436;-52
2021/08/06 00:42:39;;;;;;;2.03;1.20;;;22.50;60.30;;;;;;5033180;28;20185;-52
2021/08/06 00:45:05;;;;;;;1.20;1.10;;;22.50;60.30;;;;;;5033070;28;20571;-51
2021/08/06 00:47:33;;;;;;;1.40;1.30;;;22.50;60.30;;;;;;5032944;28;20297;-50
2021/08/06 00:49:58;;;;;;;1.20;1.10;;;22.50;60.20;;;;;;5033415;28;20923;-50
2021/08/06 00:52:24;;;;;;;0.90;0.90;;;22.10;60.40;;;;;;5032668;28;20428;-52
2021/08/06 00:54:50;;;;;;;1.17;1.07;;;22.20;60.90;;;;;;5033037;28;20255;-52
2021/08/06 00:57:16;;;;;;;1.20;1.10;;;22.20;60.60;;;;;;5033000;28;20194;-52
2021/08/06 00:59:42;;;;;;;2.10;1.13;;;22.30;60.50;;;;;;5033649;28;20208;-51
2021/08/06 01:02:16;;;;;;;1.90;1.10;;;22.30;60.40;;;;;;5031037;28;20440;-52
2021/08/06 01:05:06;;;;;;;1.10;1.00;;;22.30;60.10;;;;;;5032706;28;20235;-51
2021/08/06 01:07:58;;;;;;;5.63;1.43;;;22.20;60.10;;;;;;5032797;28;20995;-51
2021/08/06 01:10:28;;;;;;;1.70;1.10;;;22.10;60.30;;;;;;5035803;28;20449;-50
2021/08/06 01:12:57;;;;;;;3.13;1.40;;;22.10;60.30;;;;;;5032558;28;20428;-51
2021/08/06 01:15:24;;;;;;;0.90;0.90;;;22.10;60.20;;;;;;5032425;28;20435;-50
2021/08/06 01:17:50;;;;;;;1.73;1.10;;;22.10;60.20;;;;;;5031116;28;20836;-51
2021/08/06 01:20:23;;;;;;;1.40;0.93;;;22.10;60.30;;;;;;5046343;28;20443;-51
2021/08/06 01:23:00;;;;;;;1.47;1.23;;;22.10;60.30;;;;;;5032518;28;20430;-52
2021/08/06 01:25:51;;;;;;;1.30;1.20;;;22.10;60.30;;;;;;5032363;28;20498;-51
2021/08/06 01:28:23;;;;;;;1.83;1.60;;;22.00;60.10;;;;;;5030931;28;20431;-49
2021/08/06 01:30:49;;;;;;;1.80;1.20;;;22.00;60.10;;;;;;5032929;28;20427;-52
2021/08/06 01:33:17;;;;;;;0.90;0.90;;;22.00;60.40;;;;;;5032320;28;20761;-50
2021/08/06 01:35:42;;;;;;;1.13;1.00;;;22.00;60.60;;;;;;5032264;28;20424;-51
2021/08/06 01:38:10;;;;;;;1.60;1.10;;;21.90;60.50;;;;;;5032028;28;20478;-52
2021/08/06 01:41:00;;;;;;;2.70;1.47;;;21.90;60.80;;;;;;5032922;28;20185;-50
2021/08/06 01:43:37;;;;;;;1.00;1.00;;;21.90;60.80;;;;;;5032324;28;20475;-52
2021/08/06 01:46:11;;;;;;;1.87;1.17;;;21.90;60.80;;;;;;5031600;28;20569;-52
2021/08/06 01:48:39;;;;;;;1.07;1.07;;;21.90;60.70;;;;;;5032541;28;20845;-52
2021/08/06 01:51:08;;;;;;;1.90;1.60;;;21.90;60.60;;;;;;5031809;28;20432;-50
2021/08/06 01:53:39;;;;;;;2.50;1.53;;;21.80;60.40;;;;;;5032568;28;20470;-49
2021/08/06 01:56:08;;;;;;;1.20;1.10;;;21.80;60.40;;;;;;5029838;28;20428;-51
2021/08/06 01:58:36;;;;;;;1.30;1.20;;;21.80;60.70;;;;;;5032110;28;20416;-50
2021/08/06 02:01:02;;;;;;;1.73;1.53;;;21.80;60.70;;;;;;5032033;28;20507;-50
2021/08/06 02:03:28;;;;;;;1.80;1.20;;;21.80;60.70;;;;;;5031991;28;20503;-51
2021/08/06 02:05:54;;;;;;;2.10;1.90;;;21.80;60.70;;;;;;5031386;28;20586;-51
2021/08/06 02:08:20;;;;;;;1.00;1.00;;;21.80;60.80;;;;;;5031971;28;20463;-51
2021/08/06 02:10:47;;;;;;;1.37;1.27;;;21.80;61.80;;;;;;5032054;28;20263;-51
2021/08/06 02:13:13;;;;;;;5.47;1.60;;;21.80;61.10;;;;;;5031407;28;20474;-52
2021/08/06 02:15:46;;;;;;;3.00;1.37;;;21.90;61.40;;;;;;5031849;28;20486;-50
2021/08/06 02:18:13;;;;;;;1.30;1.20;;;21.80;60.90;;;;;;5032626;28;20543;-51
2021/08/06 02:20:41;;;;;;;1.40;1.30;;;21.80;60.90;;;;;;5042170;28;21495;-52
2021/08/06 02:23:09;;;;;;;1.00;1.00;;;21.80;60.90;;;;;;5031094;28;20416;-53
2021/08/06 02:25:35;;;;;;;1.70;1.60;;;21.80;60.60;;;;;;5031349;28;20476;-52
2021/08/06 02:28:02;;;;;;;1.13;1.03;;;21.80;60.40;;;;;;5031075;28;20785;-50
2021/08/06 02:30:30;;;;;;;3.60;1.87;;;21.80;60.60;;;;;;5031625;28;20951;-51
2021/08/06 02:32:56;;;;;;;3.17;1.70;;;21.80;60.70;;;;;;5031060;28;20420;-51
2021/08/06 02:35:22;;;;;;;1.67;1.57;;;21.80;60.70;;;;;;5031219;28;20420;-51
2021/08/06 02:37:49;;;;;;;1.50;1.40;;;21.70;60.80;;;;;;5031196;28;20947;-48
2021/08/06 02:40:15;;;;;;;2.20;1.63;;;21.60;60.50;;;;;;5031742;28;20197;-51
2021/08/06 02:42:41;;;;;;;1.80;1.53;;;21.20;61.30;;;;;;5030840;28;20435;-53
2021/08/06 02:45:07;;;;;;;1.70;1.37;;;20.90;62.60;;;;;;5031064;28;20366;-51
2021/08/06 02:47:32;;;;;;;1.60;1.50;;;20.90;62.60;;;;;;5029428;28;20204;-51
2021/08/06 02:49:58;;;;;;;1.40;1.30;;;20.90;62.50;;;;;;5030367;28;20416;-51
2021/08/06 02:52:24;;;;;;;1.70;1.60;;;21.00;61.80;;;;;;5030779;28;20239;-52
2021/08/06 02:54:49;;;;;;;4.10;1.70;;;21.00;61.80;;;;;;5033068;28;20193;-52
2021/08/06 02:57:15;;;;;;;1.20;1.20;;;21.00;61.40;;;;;;5035275;28;20189;-51
2021/08/06 02:59:41;;;;;;;2.03;1.50;;;21.00;61.80;;;;;;5035642;28;20204;-52
2021/08/06 03:02:07;;;;;;;1.50;1.40;;;21.00;62.00;;;;;;5034730;28;20193;-51
2021/08/06 03:04:34;;;;;;;1.27;1.20;;;21.00;61.60;;;;;;5035108;28;20213;-51
2021/08/06 03:07:00;;;;;;;1.50;1.40;;;21.10;61.60;;;;;;5034908;28;20204;-52
2021/08/06 03:09:26;;;;;;;1.83;1.37;;;21.10;61.80;;;;;;5035606;28;20446;-50
2021/08/06 03:11:51;;;;;;;1.50;1.40;;;20.90;61.50;;;;;;5034656;28;20795;-51
2021/08/06 03:14:17;;;;;;;1.97;1.50;;;21.00;61.60;;;;;;5033630;28;20671;-51
2021/08/06 03:16:43;;;;;;;1.47;1.33;;;21.10;61.70;;;;;;5034554;28;20610;-50
2021/08/06 03:19:08;;;;;;;1.50;1.40;;;21.20;61.10;;;;;;5044283;28;20220;-52
2021/08/06 03:21:34;;;;;;;1.70;1.60;;;21.20;61.00;;;;;;5038993;28;20224;-49
2021/08/06 03:24:00;;;;;;;1.50;1.40;;;21.10;60.80;;;;;;5035064;28;20205;-51
2021/08/06 03:26:25;;;;;;;1.70;1.60;;;21.20;60.40;;;;;;5034263;28;20224;-51
2021/08/06 03:28:51;;;;;;;1.40;1.30;;;21.40;60.50;;;;;;5035074;28;20474;-51
2021/08/06 03:31:16;;;;;;;2.23;1.57;;;21.30;60.50;;;;;;5034403;28;20239;-52
2021/08/06 03:33:42;;;;;;;1.60;1.50;;;21.20;60.90;;;;;;5034631;28;20201;-51
2021/08/06 03:36:08;;;;;;;4.13;2.03;;;21.30;61.20;;;;;;5034294;28;20288;-51
2021/08/06 03:38:33;;;;;;;2.07;1.87;;;21.20;60.30;;;;;;5035082;28;20229;-51
2021/08/06 03:40:59;;;;;;;1.67;1.57;;;21.10;61.70;;;;;;5032617;28;20592;-50
2021/08/06 03:43:24;;;;;;;2.60;1.63;;;21.30;61.10;;;;;;5035002;28;20219;-51
2021/08/06 03:45:50;;;;;;;2.00;1.40;;;21.50;60.70;;;;;;5034253;28;20221;-50
2021/08/06 03:48:16;;;;;;;4.20;1.70;;;21.70;60.00;;;;;;5034165;28;20197;-51
2021/08/06 03:50:42;;;;;;;1.60;1.50;;;21.80;59.70;;;;;;5032894;28;20221;-52
2021/08/06 03:53:08;;;;;;;2.87;1.60;;;21.90;59.70;;;;;;5034052;28;20284;-50
2021/08/06 03:55:34;;;;;;;1.60;1.50;;;21.80;60.20;;;;;;5034225;28;20467;-51
2021/08/06 03:58:01;;;;;;;2.77;1.93;;;21.80;59.80;;;;;;5033738;28;20947;-51
2021/08/06 04:00:31;;;;;;;3.40;1.70;;;21.80;60.30;;;;;;5034130;28;20205;-50
2021/08/06 04:02:56;;;;;;;2.50;1.83;;;21.70;59.70;;;;;;5033891;28;20419;-49
2021/08/06 04:05:22;;;;;;;1.43;1.33;;;21.70;59.50;;;;;;5033200;28;20483;-50
2021/08/06 04:07:49;;;;;;;2.47;1.57;;;21.60;59.90;;;;;;5031602;28;20196;-47
2021/08/06 04:10:18;;;;;;;3.07;1.97;;;21.70;59.90;;;;;;5034449;28;20633;-47
2021/08/06 04:12:46;;;;;;;1.70;1.60;;;21.80;59.70;;;;;;5033918;28;20495;-47
2021/08/06 04:15:12;;;;;;;4.80;1.53;;;21.90;59.70;;;;;;5033671;28;21016;-45
2021/08/06 04:17:38;;;;;;;2.23;1.10;;;21.80;60.00;;;;;;5033181;28;20487;-46
2021/08/06 04:20:04;;;;;;;1.87;1.77;;;21.80;60.30;;;;;;5047648;28;20420;-46
2021/08/06 04:22:30;;;;;;;1.60;1.50;;;21.70;59.90;;;;;;5033659;28;20236;-45
2021/08/06 04:24:55;;;;;;;1.60;1.50;;;21.40;60.40;;;;;;5033756;28;20534;-46
2021/08/06 04:27:21;;;;;;;2.87;1.53;;;21.40;60.90;;;;;;5033504;28;20280;-47
2021/08/06 04:29:47;;;;;;;2.13;2.03;;;21.60;60.90;;;;;;5034038;28;20666;-47
2021/08/06 04:32:12;;;;;;;8.33;1.93;;;21.70;60.70;;;;;;5033278;28;20637;-46
2021/08/06 04:34:38;;;;;;;2.40;2.00;;;21.70;60.50;;;;;;5031806;28;20212;-47
2021/08/06 04:37:03;;;;;;;1.70;1.60;;;21.80;60.50;;;;;;5033401;28;20276;-46
2021/08/06 04:39:29;;;;;;;2.07;1.47;;;21.80;60.20;;;;;;5033861;28;20193;-47
2021/08/06 04:41:55;;;;;;;2.23;2.03;;;21.70;60.90;;;;;;5033176;28;20247;-47
2021/08/06 04:44:20;;;;;;;1.90;1.70;;;21.60;61.30;;;;;;5033241;28;20193;-46
2021/08/06 04:46:46;;;;;;;2.53;1.63;;;21.60;61.60;;;;;;5033461;28;20200;-46
2021/08/06 04:49:12;;;;;;;2.63;1.90;;;21.40;61.90;;;;;;5031624;28;20202;-46
2021/08/06 04:51:38;;;;;;;2.30;2.10;;;21.30;62.60;;;;;;5033263;28;20254;-47
2021/08/06 04:54:04;;;;;;;1.70;1.60;;;21.30;63.10;;;;;;5032918;28;20428;-46
2021/08/06 04:56:30;;;;;;;1.83;1.53;;;21.30;63.30;;;;;;5032751;28;20912;-48
2021/08/06 04:58:55;;;;;;;2.67;1.70;;;21.50;63.20;;;;;;5032976;28;20424;-50
2021/08/06 05:01:21;;;;;;;1.93;1.60;;;21.50;64.10;;;;;;5031348;28;20549;-48
2021/08/06 05:03:46;;;;;;;2.00;1.80;;;21.50;63.80;;;;;;5033293;28;20648;-47
2021/08/06 05:06:13;;;;;;;1.87;1.77;;;21.60;63.90;;;;;;5032506;28;20294;-49
2021/08/06 05:08:42;;;;;;;4.33;1.40;;;21.70;64.30;;;;;;5032829;28;20612;-49
2021/08/06 05:11:07;;;;;;;2.87;1.93;;;21.80;65.20;;;;;;5032787;28;20421;-48
2021/08/06 05:13:33;;;;;;;2.10;1.90;;;21.80;65.30;;;;;;5032580;28;20432;-47
2021/08/06 05:15:59;;;;;;;2.40;2.00;;;21.90;65.40;;;;;;5032312;28;20235;-47
2021/08/06 05:18:24;;;;;;;5.60;3.90;;;21.90;65.60;;;;;;5035450;28;20644;-47
2021/08/06 05:20:50;;;;;;;4.07;3.67;;;21.70;64.90;;;;;;5043891;28;20221;-48
2021/08/06 05:23:15;;;;;;;2.90;2.70;;;21.70;65.30;;;;;;5032497;28;20193;-47
2021/08/06 05:25:41;;;;;;;3.40;2.17;;;21.70;65.40;;;;;;5030868;28;20243;-51
2021/08/06 05:28:07;;;;;;;5.53;2.00;;;21.70;65.60;;;;;;5031830;28;20296;-47
2021/08/06 05:30:32;;;;;;;2.90;1.93;;;21.60;65.80;;;;;;5032853;28;20185;-47
2021/08/06 05:32:58;;;;;;;2.10;2.00;;;21.50;66.50;;;;;;5032039;28;20216;-47
2021/08/06 05:35:24;;;;;;;2.67;1.87;;;21.50;66.80;;;;;;5032165;28;20220;-47
2021/08/06 05:37:49;;;;;;;2.77;2.30;;;21.40;66.70;;;;;;5032082;28;20288;-48
2021/08/06 05:40:15;;;;;;;2.77;1.90;;;21.10;68.10;;;;;;5033006;28;20611;-47
2021/08/06 05:42:40;;;;;;;3.20;2.00;;;21.10;68.20;;;;;;5031882;28;20275;-49
2021/08/06 05:45:07;;;;;;;2.60;2.07;;;21.00;68.10;;;;;;5031946;28;20254;-47
2021/08/06 05:47:47;;;;;;;2.60;2.40;;;20.90;69.10;;;;;;5031980;28;20676;-49
2021/08/06 05:50:14;;;;;;;6.03;1.93;;;20.90;69.60;;;;;;5032544;28;20434;-47
2021/08/06 05:52:40;;;;;;;2.63;1.90;;;20.80;69.10;;;;;;5029984;28;20472;-47
2021/08/06 05:55:06;;;;;;;4.37;2.30;;;20.80;69.40;;;;;;5031764;28;20420;-47
2021/08/06 05:57:31;;;;;;;3.60;2.13;;;20.90;69.40;;;;;;5031381;28;20201;-48
2021/08/06 05:59:57;;;;;;;2.90;2.17;;;20.90;69.40;;;;;;5032227;28;20192;-47
2021/08/06 06:02:22;;;;;;;1.90;1.80;;;21.00;69.40;;;;;;5031381;28;20244;-48
2021/08/06 06:04:48;;;;;;;2.13;2.03;;;20.70;70.00;;;;;;5031742;28;20276;-47
2021/08/06 06:07:13;;;;;;;2.70;2.10;;;20.60;70.50;;;;;;5031261;28;20637;-47
2021/08/06 06:09:39;;;;;;;4.60;2.40;;;20.70;70.90;;;;;;5032412;28;20247;-47
2021/08/06 06:12:05;;;;;;;3.93;2.20;;;20.50;70.90;;;;;;5031701;28;20220;-47
2021/08/06 06:14:30;;;;;;;3.73;2.00;;;20.60;70.80;;;;;;5032056;28;20681;-47
2021/08/06 06:16:56;;;;;;;3.33;2.03;;;20.60;70.90;;;;;;5031138;28;20189;-46
2021/08/06 06:19:22;;;;;;;2.37;2.17;;;20.60;71.90;;;;;;5041132;28;20240;-47
2021/08/06 06:21:47;;;;;;;6.23;2.17;;;20.60;73.00;;;;;;5033847;28;20217;-47
2021/08/06 06:24:13;;;;;;;4.17;2.40;;;20.70;72.30;;;;;;5031683;28;20645;-47
2021/08/06 06:26:39;;;;;;;3.03;2.37;;;20.90;72.00;;;;;;5031039;28;20193;-47
2021/08/06 06:29:04;;;;;;;3.60;2.37;;;21.10;71.40;;;;;;5031581;28;20200;-47
2021/08/06 06:31:30;;;;;;;2.60;2.40;;;21.30;71.10;;;;;;5030997;28;20192;-47
2021/08/06 06:33:56;;;;;;;1.97;1.87;;;21.30;70.90;;;;;;5031130;28;20558;-47
2021/08/06 06:36:21;;;;;;;1.90;1.80;;;21.30;70.10;;;;;;5031044;28;20720;-47
2021/08/06 06:38:47;;;;;;;2.37;2.17;;;21.30;69.60;;;;;;5031861;28;20197;-47
2021/08/06 06:41:12;;;;;;;5.10;2.20;;;21.30;69.50;;;;;;5030891;28;20194;-48
2021/08/06 06:43:38;;;;;;;2.77;2.23;;;21.30;69.10;;;;;;5031439;28;20201;-47
2021/08/06 06:46:04;;;;;;;2.73;2.37;;;21.50;69.20;;;;;;5029294;28;20225;-47
2021/08/06 06:48:30;;;;;;;3.70;1.90;;;21.70;69.40;;;;;;5031526;28;20274;-49
2021/08/06 06:50:55;;;;;;;1.80;1.70;;;21.80;69.70;;;;;;5030867;28;20432;-48
2021/08/06 06:53:21;;;;;;;2.23;2.10;;;21.90;70.00;;;;;;5031157;28;20193;-47
2021/08/06 06:55:47;;;;;;;2.83;2.50;;;22.00;69.60;;;;;;5063446;28;20563;-47
2021/08/06 06:58:12;;;;;;;2.70;2.50;;;22.00;69.00;;;;;;5031005;28;20701;-48
2021/08/06 07:00:38;;;;;;;2.60;2.40;;;22.10;68.90;;;;;;5031528;28;20286;-47
2021/08/06 07:03:04;;;;;;;2.47;2.27;;;22.30;69.20;;;;;;5031340;28;20197;-47
2021/08/06 07:05:29;;;;;;;1.87;1.77;;;22.40;67.90;;;;;;5030974;28;20331;-47
2021/08/06 07:07:55;;;;;;;3.00;1.80;;;22.60;67.50;;;;;;5030624;28;20201;-48
2021/08/06 07:10:21;;;;;;;4.30;2.43;;;22.80;67.60;;;;;;5031413;28;20193;-48
2021/08/06 07:12:49;;;;;;;2.50;1.97;;;22.90;67.20;;;;;;5029467;28;20434;-47
2021/08/06 07:15:15;;;;;;;2.23;2.03;;;23.00;68.60;;;;;;5030965;28;20287;-47
2021/08/06 07:17:42;;;;;;;3.53;1.80;;;23.30;68.30;;;;;;5030617;28;20650;-49
2021/08/06 07:20:10;;;;;;;3.00;2.10;;;23.40;66.70;;;;;;5044807;28;20790;-47
2021/08/06 07:22:36;;;;;;;2.07;1.87;;;23.30;64.90;;;;;;5030591;28;20439;-46
2021/08/06 07:25:03;;;;;;;5.23;2.00;;;23.40;64.50;;;;;;5030697;28;20483;-47
2021/08/06 07:27:28;;;;;;;2.13;1.90;;;23.50;65.50;;;;;;5030702;28;20514;-47
2021/08/06 07:29:54;;;;;;;2.10;1.90;;;23.40;65.40;;;;;;5030966;28;20870;-48
2021/08/06 07:32:19;;;;;;;3.50;2.43;;;23.30;64.40;;;;;;5030693;28;20231;-48
2021/08/06 07:34:45;;;;;;;2.40;1.47;;;23.30;64.90;;;;;;5030850;28;20205;-46
2021/08/06 07:37:11;;;;;;;1.90;1.60;;;23.30;65.30;;;;;;5030605;28;20251;-49
2021/08/06 07:39:38;;;;;;;1.77;1.53;;;23.30;64.70;;;;;;5029350;28;20196;-49
2021/08/06 07:42:04;;;;;;;1.60;1.50;;;23.40;64.70;;;;;;5034167;28;20224;-46
2021/08/06 07:44:30;;;;;;;2.30;1.53;;;23.40;64.80;;;;;;5034378;28;20435;-47
2021/08/06 07:46:55;;;;;;;3.53;2.13;;;23.30;64.70;;;;;;5034101;28;20437;-48
2021/08/06 07:49:21;;;;;;;1.90;1.57;;;23.20;65.00;;;;;;5034492;28;20189;-46
2021/08/06 07:51:46;;;;;;;2.03;1.60;;;23.10;64.30;;;;;;5034284;28;20311;-47
2021/08/06 07:54:12;;;;;;;4.57;2.17;;;23.10;64.60;;;;;;5034440;28;20200;-48
2021/08/06 07:56:38;;;;;;;5.60;1.43;;;23.00;65.10;;;;;;5033954;28;20185;-47
2021/08/06 07:59:04;;;;;;;1.73;1.63;;;23.10;65.50;;;;;;5034739;28;20240;-48
2021/08/06 08:01:30;;;;;;;3.10;1.70;;;23.20;65.60;;;;;;5033889;28;20208;-47
2021/08/06 08:03:55;;;;;;;1.70;1.60;;;23.20;65.40;;;;;;5033827;28;20435;-48
2021/08/06 08:06:21;;;;;;;1.87;1.60;;;23.30;64.80;;;;;;5032133;28;20483;-48
2021/08/06 08:08:47;;;;;;;2.10;1.40;;;23.20;64.70;;;;;;5034730;28;20641;-46
2021/08/06 08:11:12;;;;;;;2.83;1.53;;;23.20;65.20;;;;;;5033743;28;20220;-47
2021/08/06 08:13:38;;;;;;;4.57;1.90;;;23.10;66.20;;;;;;5033744;28;20193;-47
2021/08/06 08:16:04;;;;;;;2.70;1.73;;;23.00;67.00;;;;;;5033707;28;20272;-48
2021/08/06 08:18:30;;;;;;;2.50;1.87;;;22.90;67.70;;;;;;5036412;28;20765;-47
2021/08/06 08:20:56;;;;;;;1.90;1.47;;;22.60;68.70;;;;;;5043288;28;20416;-50
2021/08/06 08:23:21;;;;;;;3.60;1.70;;;22.30;69.50;;;;;;5033414;28;20216;-48
2021/08/06 08:25:53;;;;;;;2.13;1.90;;;22.50;69.40;;;;;;5034100;28;20248;-48
2021/08/06 08:28:19;;;;;;;1.40;1.20;;;22.40;71.10;;;;;;5033780;28;20194;-49
2021/08/06 08:30:45;;;;;;;2.13;1.60;;;22.30;69.70;;;;;;5033769;28;20428;-50
2021/08/06 08:33:14;;;;;;;2.50;1.37;;;22.10;69.60;;;;;;5031382;28;20428;-48
2021/08/06 08:35:40;;;;;;;1.50;1.40;;;22.00;70.60;;;;;;5033618;28;20258;-48
2021/08/06 08:38:06;;;;;;;1.40;1.30;;;22.10;70.50;;;;;;5033092;28;20928;-47
2021/08/06 08:40:32;;;;;;;3.00;1.57;;;22.10;70.20;;;;;;5033653;28;20666;-48
2021/08/06 08:42:58;;;;;;;5.67;2.10;;;22.10;70.80;;;;;;5032897;28;20201;-47
2021/08/06 08:45:24;;;;;;;2.00;1.50;;;22.20;69.60;;;;;;5033393;28;20221;-47
2021/08/06 08:47:50;;;;;;;1.40;1.30;;;22.40;69.00;;;;;;5033044;28;20431;-49
2021/08/06 08:50:16;;;;;;;3.07;1.53;;;22.40;68.30;;;;;;5032494;28;20200;-47
2021/08/06 08:52:42;;;;;;;1.40;1.27;;;22.60;68.60;;;;;;5031993;28;20436;-47
2021/08/06 08:55:09;;;;;;;1.47;1.10;;;22.70;67.50;;;;;;5033064;28;20424;-47
2021/08/06 08:57:35;;;;;;;1.23;1.10;;;22.90;67.00;;;;;;5031066;28;20204;-47
2021/08/06 09:00:03;;;;;;;1.83;1.30;;;23.00;66.90;;;;;;5033916;28;20515;-47
2021/08/06 09:02:28;;;;;;;1.43;1.27;;;23.20;66.80;;;;;;5032778;28;20440;-47
2021/08/06 09:05:28;;;;;;;1.53;1.43;;;23.20;66.50;;;;;;5032658;28;20495;-47
2021/08/06 09:07:55;;;;;;;1.73;1.23;;;23.20;65.00;;;;;;5041913;28;20213;-48
2021/08/06 09:10:27;;;;;;;1.30;1.30;;;23.20;66.20;;;;;;5033262;28;20424;-47
2021/08/06 09:12:53;;;;;;;1.43;1.17;;;23.30;66.10;;;;;;5032692;28;20428;-46
2021/08/06 09:15:40;;;;;;;2.20;1.50;;;23.50;65.80;;;;;;5032426;28;20462;-49
2021/08/06 09:18:26;;;;;;;1.60;1.30;;;23.50;65.00;;;;;;5032830;28;20232;-47
2021/08/06 09:20:54;;;;;;;1.77;1.30;;;23.50;65.50;;;;;;5038815;28;20436;-48
2021/08/06 09:23:48;;;;;;;1.30;1.20;;;23.60;65.50;;;;;;5032471;28;20424;-47
2021/08/06 09:26:33;;;;;;;2.60;1.43;;;23.60;64.60;;;;;;5031093;28;20500;-46
2021/08/06 09:29:21;;;;;;;2.17;1.10;;;23.70;64.70;;;;;;5033105;28;20424;-47
2021/08/06 09:31:58;;;;;;;2.00;1.50;;;23.90;64.70;;;;;;5032334;28;20531;-48
2021/08/06 09:34:29;;;;;;;1.30;1.13;;;24.00;64.50;;;;;;5032406;28;20535;-46
2021/08/06 09:37:22;;;;;;;1.30;1.20;;;24.20;65.20;;;;;;5031721;28;20815;-47
2021/08/06 09:39:55;;;;;;;1.60;1.50;;;24.10;60.10;;;;;;5032622;28;20525;-46
2021/08/06 09:42:20;;;;;;;1.73;0.83;;;23.90;60.40;;;;;;5032079;28;20436;-47
2021/08/06 09:44:59;;;;;;;1.70;1.60;;;24.10;60.70;;;;;;5032057;28;20574;-49
2021/08/06 09:47:26;;;;;;;1.63;1.03;;;24.20;60.20;;;;;;5031773;28;20637;-49
2021/08/06 09:49:56;;;;;;;1.60;1.30;;;24.40;59.80;;;;;;5032382;28;20424;-48
2021/08/06 09:52:37;;;;;;;1.13;1.03;;;24.20;58.00;;;;;;5030147;28;20416;-47
2021/08/06 09:55:05;;;;;;;0.87;0.87;;;24.00;59.50;;;;;;5031922;28;20561;-50
2021/08/06 09:57:31;;;;;;;1.40;1.00;;;24.20;59.80;;;;;;5031902;28;20431;-47
2021/08/06 09:59:59;;;;;;;1.77;1.10;;;24.40;59.00;;;;;;5032248;28;20424;-48
2021/08/06 10:02:32;;;;;;;1.10;1.00;;;24.60;58.90;;;;;;5031583;28;20665;-47
2021/08/06 10:05:00;;;;;;;1.40;1.30;;;24.70;57.80;;;;;;5031769;28;20483;-47
2021/08/06 10:07:27;;;;;;;1.73;0.90;;;24.50;56.30;;;;;;5031415;28;20924;-47
2021/08/06 10:09:53;;;;;;;1.33;1.13;;;24.30;55.80;;;;;;5032108;28;20792;-49
2021/08/06 10:12:19;;;;;;;2.30;1.50;;;24.00;56.60;;;;;;5031647;28;20420;-50
2021/08/06 10:14:45;;;;;;;1.43;1.10;;;23.90;57.50;;;;;;5032011;28;20486;-47
2021/08/06 10:17:11;;;;;;;1.00;1.00;;;24.00;58.10;;;;;;5029260;28;20193;-47
2021/08/06 10:19:37;;;;;;;2.30;1.17;;;24.30;58.70;;;;;;5045119;28;20197;-47
2021/08/06 10:22:05;;;;;;;1.67;1.10;;;24.50;58.00;;;;;;5031677;28;20420;-47
2021/08/06 10:24:31;;;;;;;1.17;1.00;;;24.70;56.40;;;;;;5031112;28;20444;-47
2021/08/06 10:26:58;;;;;;;2.70;1.13;;;25.00;54.50;;;;;;5031073;28;20498;-48
2021/08/06 10:29:25;;;;;;;4.10;1.20;;;24.90;52.50;;;;;;5031788;28;20482;-46
2021/08/06 10:32:12;;;;;;;1.00;1.00;;;24.90;52.00;;;;;;5031306;28;20435;-48
2021/08/06 10:35:03;;;;;;;1.83;1.23;;;25.20;52.60;;;;;;5031197;28;20424;-49
2021/08/06 10:37:55;;;;;;;1.20;1.00;;;25.30;52.10;;;;;;5031186;28;20443;-46
2021/08/06 10:40:33;;;;;;;0.90;0.80;;;25.50;50.70;;;;;;5031685;28;20474;-47
2021/08/06 10:43:11;;;;;;;1.70;1.13;;;25.20;51.10;;;;;;5030455;28;20923;-47
2021/08/06 10:45:46;;;;;;;1.57;0.90;;;25.20;51.70;;;;;;5030328;28;21030;-48
2021/08/06 10:48:30;;;;;;;1.30;1.20;;;24.90;50.50;;;;;;5030910;28;20853;-47
2021/08/06 10:51:22;;;;;;;3.33;1.10;;;24.90;52.30;;;;;;5028632;28;20438;-49
2021/08/06 10:53:55;;;;;;;1.77;1.30;;;24.80;51.40;;;;;;5031124;28;20440;-48
2021/08/06 10:56:30;;;;;;;1.70;1.30;;;24.80;51.30;;;;;;5030998;28;20495;-47
2021/08/06 10:59:00;;;;;;;2.03;1.10;;;24.80;51.50;;;;;;5026358;28;20534;-47
2021/08/06 11:01:32;;;;;;;9.10;1.90;;;24.80;52.10;;;;;;5031096;28;20498;-48
2021/08/06 11:04:05;;;;;;;2.10;1.10;;;24.60;50.90;;;;;;5030988;28;20428;-49
2021/08/06 11:06:54;;;;;;;1.23;1.10;;;24.90;51.70;;;;;;5029590;28;20480;-47
2021/08/06 11:09:29;;;;;;;1.37;1.20;;;25.30;52.50;;;;;;5031499;28;20444;-47
2021/08/06 11:12:01;;;;;;;1.70;0.90;;;25.70;50.90;;;;;;5029088;28;20835;-47
2021/08/06 11:14:33;;;;;;;0.90;0.70;;;25.80;50.50;;;;;;5030957;28;20455;-47
2021/08/06 11:17:08;;;;;;;1.13;1.00;;;25.80;50.00;;;;;;5034052;28;20482;-48
2021/08/06 11:19:43;;;;;;;2.33;1.13;;;25.80;49.40;;;;;;5047910;28;20467;-47
2021/08/06 11:22:16;;;;;;;1.40;0.80;;;25.90;49.60;;;;;;5034660;28;20714;-48
2021/08/06 11:24:44;;;;;;;1.77;0.80;;;25.70;49.90;;;;;;5034625;28;20430;-47
2021/08/06 11:27:11;;;;;;;1.47;1.10;;;25.90;50.20;;;;;;5034564;28;20424;-48
2021/08/06 11:29:39;;;;;;;1.33;0.90;;;25.80;49.90;;;;;;5035120;28;20424;-49
2021/08/06 11:32:10;;;;;;;1.47;1.30;;;25.60;50.20;;;;;;5034545;28;20485;-49
2021/08/06 11:34:53;;;;;;;1.73;1.00;;;25.40;50.90;;;;;;5034772;28;20428;-47
2021/08/06 11:37:22;;;;;;;1.83;0.90;;;24.60;52.60;;;;;;5032896;28;20904;-49
2021/08/06 11:40:10;;;;;;;1.20;1.10;;;24.50;54.30;;;;;;5035065;28;20463;-47
2021/08/06 11:42:37;;;;;;;2.47;1.00;;;24.50;53.40;;;;;;5034278;28;20497;-47
2021/08/06 11:45:07;;;;;;;1.27;1.10;;;24.40;53.60;;;;;;5034487;28;20955;-48
2021/08/06 11:47:44;;;;;;;3.20;1.00;;;24.60;52.80;;;;;;5033929;28;20515;-47
2021/08/06 11:50:31;;;;;;;1.63;1.00;;;25.00;51.70;;;;;;5034759;28;20938;-47
2021/08/06 11:52:56;;;;;;;1.00;1.00;;;25.20;51.80;;;;;;5034254;28;20439;-48
2021/08/06 11:55:28;;;;;;;0.83;0.83;;;25.80;50.80;;;;;;5034818;28;20843;-47
2021/08/06 11:57:57;;;;;;;6.93;1.60;;;25.80;49.30;;;;;;5033558;28;20284;-51
2021/08/06 12:00:24;;;;;;;1.20;0.80;;;26.00;49.10;;;;;;5034487;28;20470;-47
2021/08/06 12:02:59;;;;;;;0.97;0.77;;;26.30;49.70;;;;;;5031828;28;20444;-49
2021/08/06 12:05:25;;;;;;;1.70;0.90;;;26.60;49.20;;;;;;5034206;28;20882;-49
2021/08/06 12:07:51;;;;;;;2.87;1.40;;;26.90;48.60;;;;;;5033903;28;20423;-48
2021/08/06 12:10:17;;;;;;;3.50;1.00;;;26.80;47.00;;;;;;5034400;28;20197;-48
2021/08/06 12:12:43;;;;;;;1.37;0.90;;;27.00;46.10;;;;;;5033765;28;20684;-48
2021/08/06 12:15:23;;;;;;;1.33;0.90;;;26.80;46.00;;;;;;5033860;28;20459;-52
2021/08/06 12:18:08;;;;;;;1.43;0.90;;;26.90;45.60;;;;;;5033756;28;20240;-47
2021/08/06 12:20:39;;;;;;;1.20;1.10;;;27.00;45.30;;;;;;5021862;28;20424;-47
2021/08/06 12:23:05;;;;;;;1.47;1.37;;;26.60;45.90;;;;;;5032688;28;20436;-49
2021/08/06 12:25:32;;;;;;;1.27;0.90;;;26.30;46.20;;;;;;5034074;28;20935;-48
2021/08/06 12:28:02;;;;;;;2.50;0.90;;;25.60;46.20;;;;;;5032294;28;20432;-48
2021/08/06 12:30:33;;;;;;;1.23;1.10;;;25.50;47.50;;;;;;5032816;28;20432;-47
2021/08/06 12:33:00;;;;;;;2.10;1.20;;;25.80;47.80;;;;;;5032818;28;20958;-48
2021/08/06 12:35:26;;;;;;;1.40;1.30;;;25.80;46.80;;;;;;5033765;28;20916;-47
2021/08/06 12:37:53;;;;;;;1.13;1.03;;;26.00;47.20;;;;;;5033390;28;20778;-47
2021/08/06 12:40:20;;;;;;;1.30;1.20;;;25.90;47.30;;;;;;5032611;28;20436;-48
2021/08/06 12:42:46;;;;;;;2.03;1.00;;;25.90;46.50;;;;;;5032924;28;20429;-47
2021/08/06 12:45:19;;;;;;;1.90;1.13;;;25.90;46.50;;;;;;5033825;28;20476;-47
2021/08/06 12:47:55;;;;;;;0.80;0.70;;;26.10;46.10;;;;;;5033388;28;20908;-47
2021/08/06 12:50:32;;;;;;;1.37;1.20;;;26.40;45.70;;;;;;5033576;28;20428;-48
2021/08/06 12:53:10;;;;;;;2.73;1.17;;;26.50;46.50;;;;;;5032339;28;20443;-48
2021/08/06 12:55:37;;;;;;;1.87;1.00;;;26.70;45.70;;;;;;5032571;28;20814;-47